Time;durP1;ratioP1;P1;durP2;ratioP2;P2;SDS_P1;SDS_P2;PMS_P1;PMS_P2;Temp;Humidity;BMP_temperature;BMP_pressure;BME280_temperature;BME280_humidity;BME280_pressure;Samples;Min_cycle;Max_cycle;Signal;HPM_P1;HPM_P2
2023/08/08 00:02:23;;;;;;;7.90;4.25;;;13.60;99.90;;;;;;5078422;28;20047;-76
2023/08/08 00:04:50;;;;;;;7.57;5.30;;;13.60;99.90;;;;;;5063280;28;20047;-76
2023/08/08 00:07:16;;;;;;;7.38;5.57;;;13.60;99.90;;;;;;5061589;28;20040;-76
2023/08/08 00:09:41;;;;;;;7.50;5.97;;;13.60;99.90;;;;;;5076842;28;20043;-76
2023/08/08 00:12:10;;;;;;;8.32;6.07;;;13.60;99.90;;;;;;5062667;28;20483;-75
2023/08/08 00:14:36;;;;;;;9.05;6.38;;;13.60;99.90;;;;;;5060556;28;20083;-76
2023/08/08 00:17:02;;;;;;;6.93;5.85;;;13.60;99.90;;;;;;5077492;28;20150;-76
2023/08/08 00:19:30;;;;;;;8.85;6.35;;;13.60;99.90;;;;;;5109028;27;20039;-76
2023/08/08 00:21:56;;;;;;;8.10;5.85;;;13.60;99.90;;;;;;5079065;28;20109;-76
2023/08/08 00:24:22;;;;;;;9.55;6.57;;;13.60;99.90;;;;;;5079283;28;20063;-76
2023/08/08 00:26:49;;;;;;;8.90;6.20;;;13.60;99.90;;;;;;5059107;28;20043;-76
2023/08/08 00:29:14;;;;;;;8.30;6.57;;;13.60;99.90;;;;;;5059984;28;20405;-76
2023/08/08 00:31:40;;;;;;;8.23;6.47;;;13.60;99.90;;;;;;5080610;28;20040;-76
2023/08/08 00:34:06;;;;;;;8.85;6.18;;;13.60;99.90;;;;;;5065300;28;20035;-76
2023/08/08 00:36:32;;;;;;;8.82;6.72;;;13.60;99.90;;;;;;5066277;28;20036;-76
2023/08/08 00:38:57;;;;;;;8.38;6.68;;;13.60;99.90;;;;;;5085464;28;20043;-76
2023/08/08 00:41:23;;;;;;;9.10;6.93;;;13.70;99.90;;;;;;5067661;28;20047;-76
2023/08/08 00:43:50;;;;;;;6.85;5.82;;;13.70;99.90;;;;;;5084589;28;20043;-76
2023/08/08 00:46:21;;;;;;;7.53;6.55;;;13.70;99.90;;;;;;5065130;28;20089;-76
2023/08/08 00:48:47;;;;;;;10.02;6.93;;;13.70;99.90;;;;;;5083270;28;20452;-76
2023/08/08 00:51:14;;;;;;;8.32;6.38;;;13.70;99.90;;;;;;5080841;28;20063;-76
2023/08/08 00:53:39;;;;;;;8.35;6.38;;;13.70;99.90;;;;;;5065820;28;20044;-77
2023/08/08 00:56:06;;;;;;;7.05;6.22;;;13.70;99.90;;;;;;5082395;28;20050;-76
2023/08/08 00:58:32;;;;;;;9.30;7.30;;;13.70;99.90;;;;;;5080831;28;20650;-76
2023/08/08 01:00:59;;;;;;;8.60;6.55;;;13.70;99.90;;;;;;5064048;28;20051;-76
2023/08/08 01:03:26;;;;;;;8.20;6.75;;;13.70;99.90;;;;;;5082873;28;20122;-76
2023/08/08 01:06:05;;;;;;;9.30;6.82;;;13.70;99.90;;;;;;5070546;28;20047;-76
2023/08/08 01:08:54;;;;;;;8.10;6.80;;;13.70;99.90;;;;;;5077207;28;20041;-76
2023/08/08 01:11:20;;;;;;;9.50;7.00;;;13.60;99.90;;;;;;5113430;27;20055;-76
2023/08/08 01:13:46;;;;;;;8.43;7.20;;;13.70;99.90;;;;;;5066697;28;20231;-76
2023/08/08 01:16:13;;;;;;;8.18;6.95;;;13.70;99.90;;;;;;5082404;28;20048;-76
2023/08/08 01:18:40;;;;;;;9.30;6.85;;;13.70;99.90;;;;;;5065563;28;20040;-76
2023/08/08 01:21:08;;;;;;;10.95;7.68;;;13.60;99.90;;;;;;5062387;28;20064;-76
2023/08/08 01:23:53;;;;;;;8.27;6.65;;;13.70;99.90;;;;;;5077373;28;20043;-76
2023/08/08 01:26:21;;;;;;;9.45;7.07;;;13.70;99.90;;;;;;5059802;28;20043;-76
2023/08/08 01:28:47;;;;;;;8.43;6.60;;;13.60;99.90;;;;;;5070776;28;20044;-76
2023/08/08 01:31:13;;;;;;;8.27;6.40;;;13.60;99.90;;;;;;5078160;28;20116;-76
2023/08/08 01:33:39;;;;;;;8.20;6.45;;;13.60;99.90;;;;;;5061066;28;20042;-76
2023/08/08 01:36:21;;;;;;;11.65;7.28;;;13.60;99.90;;;;;;5087216;28;20043;-76
2023/08/08 01:38:50;;;;;;;9.40;6.88;;;13.60;99.90;;;;;;5082890;28;20036;-76
2023/08/08 01:41:18;;;;;;;10.07;6.70;;;13.60;99.90;;;;;;5084766;28;20502;-76
2023/08/08 01:43:48;;;;;;;11.48;7.57;;;13.60;99.90;;;;;;5103888;27;20039;-76
2023/08/08 01:46:15;;;;;;;9.70;6.63;;;13.60;99.90;;;;;;5118711;27;20048;-76
2023/08/08 01:48:45;;;;;;;12.32;7.38;;;13.60;99.90;;;;;;5062105;28;20039;-76
2023/08/08 01:51:10;;;;;;;9.57;7.65;;;13.50;99.90;;;;;;5079039;27;20062;-76
2023/08/08 01:53:36;;;;;;;8.32;7.32;;;13.50;99.90;;;;;;5087350;28;20028;-76
2023/08/08 01:56:02;;;;;;;8.52;7.38;;;13.50;99.90;;;;;;5068604;28;20450;-76
2023/08/08 01:58:28;;;;;;;10.13;8.05;;;13.50;99.90;;;;;;5088641;28;20051;-76
2023/08/08 02:00:54;;;;;;;10.93;7.60;;;13.50;99.90;;;;;;5065298;28;20048;-76
2023/08/08 02:03:20;;;;;;;10.20;8.00;;;13.50;99.90;;;;;;5087139;28;20502;-76
2023/08/08 02:05:45;;;;;;;9.98;7.30;;;13.40;99.90;;;;;;5079853;28;20048;-76
2023/08/08 02:08:12;;;;;;;8.48;7.43;;;13.40;99.90;;;;;;5084516;28;20933;-76
2023/08/08 02:10:38;;;;;;;10.32;8.35;;;13.40;99.90;;;;;;5061582;28;20028;-76
2023/08/08 02:13:04;;;;;;;9.57;8.38;;;13.40;99.90;;;;;;5079703;28;20736;-76
2023/08/08 02:15:30;;;;;;;8.30;6.68;;;13.40;99.90;;;;;;5069888;28;20039;-76
2023/08/08 02:17:56;;;;;;;8.93;7.40;;;13.40;99.90;;;;;;5121516;27;20044;-76
2023/08/08 02:20:21;;;;;;;9.15;7.55;;;13.30;99.90;;;;;;5084698;28;20382;-75
2023/08/08 02:22:47;;;;;;;9.48;7.15;;;13.30;99.90;;;;;;5083672;28;20480;-75
2023/08/08 02:25:13;;;;;;;10.85;8.98;;;13.30;99.90;;;;;;5068414;28;20133;-75
2023/08/08 02:27:39;;;;;;;9.43;7.82;;;13.30;99.90;;;;;;5085285;28;20044;-76
2023/08/08 02:30:05;;;;;;;8.63;7.72;;;13.30;99.90;;;;;;5085813;28;20047;-75
2023/08/08 02:32:31;;;;;;;12.35;7.97;;;13.30;99.90;;;;;;5086053;28;20379;-75
2023/08/08 02:35:00;;;;;;;8.50;7.65;;;13.30;99.90;;;;;;5080985;28;20046;-75
2023/08/08 02:37:26;;;;;;;12.90;8.27;;;13.30;99.90;;;;;;5120878;27;20509;-75
2023/08/08 02:39:55;;;;;;;11.00;7.55;;;13.30;99.90;;;;;;5076246;28;20048;-75
2023/08/08 02:42:20;;;;;;;9.35;7.53;;;13.30;99.90;;;;;;5085965;28;20058;-75
2023/08/08 02:44:46;;;;;;;11.30;6.57;;;13.30;99.90;;;;;;5061206;28;21407;-75
2023/08/08 02:47:12;;;;;;;9.48;7.47;;;13.30;99.90;;;;;;5064842;28;20055;-75
2023/08/08 02:49:38;;;;;;;10.05;6.22;;;13.30;99.90;;;;;;5060961;28;20035;-75
2023/08/08 02:52:04;;;;;;;6.68;5.60;;;13.30;99.90;;;;;;5076998;28;20694;-75
2023/08/08 02:54:30;;;;;;;8.98;6.10;;;13.30;99.90;;;;;;5077266;28;20071;-75
2023/08/08 02:56:56;;;;;;;9.57;6.20;;;13.30;99.90;;;;;;5068983;28;20063;-75
2023/08/08 02:59:21;;;;;;;7.75;5.85;;;13.30;99.90;;;;;;5082107;28;20048;-75
2023/08/08 03:01:47;;;;;;;6.57;5.88;;;13.30;99.90;;;;;;5068530;28;20035;-75
2023/08/08 03:04:13;;;;;;;9.55;6.30;;;13.30;99.90;;;;;;5084636;28;20055;-75
2023/08/08 03:06:39;;;;;;;7.68;5.53;;;13.30;99.90;;;;;;5082217;28;20545;-76
2023/08/08 03:09:05;;;;;;;9.88;6.50;;;13.30;99.90;;;;;;5082093;28;20103;-76
2023/08/08 03:11:30;;;;;;;8.93;6.53;;;13.30;99.90;;;;;;5067511;28;20047;-76
2023/08/08 03:13:56;;;;;;;7.72;6.13;;;13.30;99.90;;;;;;5068959;28;20042;-76
2023/08/08 03:16:22;;;;;;;8.32;6.05;;;13.30;99.90;;;;;;5069309;28;20035;-76
2023/08/08 03:18:48;;;;;;;8.75;6.78;;;13.10;99.90;;;;;;5085830;28;20078;-76
2023/08/08 03:21:14;;;;;;;9.80;7.85;;;13.20;99.90;;;;;;5084029;28;20042;-76
2023/08/08 03:23:39;;;;;;;12.77;7.80;;;13.20;99.90;;;;;;5082002;28;20035;-76
2023/08/08 03:26:05;;;;;;;11.20;8.13;;;13.20;99.90;;;;;;5063944;28;20039;-75
2023/08/08 03:28:31;;;;;;;11.15;7.30;;;13.20;99.90;;;;;;5082228;28;20097;-75
2023/08/08 03:30:57;;;;;;;11.75;7.70;;;13.20;99.90;;;;;;5068451;28;20131;-76
2023/08/08 03:33:23;;;;;;;10.70;7.70;;;13.20;99.90;;;;;;5081648;28;20032;-75
2023/08/08 03:35:48;;;;;;;12.65;8.32;;;13.20;99.90;;;;;;5082946;28;20047;-75
2023/08/08 03:38:14;;;;;;;9.13;7.80;;;13.20;99.90;;;;;;5065974;28;20051;-75
2023/08/08 03:40:40;;;;;;;11.13;7.85;;;13.30;99.90;;;;;;5083803;28;20054;-74
2023/08/08 03:43:09;;;;;;;9.77;7.35;;;13.30;99.90;;;;;;5066259;28;20039;-74
2023/08/08 03:45:34;;;;;;;12.18;6.80;;;13.20;99.90;;;;;;5067475;28;20031;-75
2023/08/08 03:48:00;;;;;;;9.98;6.93;;;13.30;99.90;;;;;;5066581;28;20050;-74
2023/08/08 03:50:26;;;;;;;9.82;6.68;;;13.20;99.90;;;;;;5084791;28;20059;-75
2023/08/08 03:52:52;;;;;;;12.90;6.35;;;13.20;99.90;;;;;;5065894;28;20043;-74
2023/08/08 03:55:18;;;;;;;10.68;5.70;;;13.20;99.90;;;;;;5064189;28;20250;-75
2023/08/08 03:57:44;;;;;;;9.38;6.50;;;13.20;99.90;;;;;;5068530;28;20553;-75
2023/08/08 04:00:11;;;;;;;9.38;5.20;;;13.10;99.90;;;;;;5084123;28;20047;-75
2023/08/08 04:02:39;;;;;;;9.60;5.15;;;13.20;99.90;;;;;;5082996;28;20039;-75
2023/08/08 04:05:06;;;;;;;7.70;4.38;;;13.10;99.90;;;;;;5064632;28;20422;-75
2023/08/08 04:07:31;;;;;;;13.93;4.95;;;13.10;99.90;;;;;;5067688;28;20070;-75
2023/08/08 04:09:57;;;;;;;7.82;4.50;;;13.10;99.90;;;;;;5065572;28;20044;-75
2023/08/08 04:12:23;;;;;;;10.02;4.90;;;13.10;99.90;;;;;;5085517;28;20109;-75
2023/08/08 04:14:49;;;;;;;7.82;4.60;;;13.10;99.90;;;;;;5080040;28;20043;-76
2023/08/08 04:17:14;;;;;;;6.63;3.80;;;13.00;99.90;;;;;;5085138;28;20123;-76
2023/08/08 04:19:43;;;;;;;9.70;4.63;;;13.00;99.90;;;;;;5080070;28;20122;-75
2023/08/08 04:22:10;;;;;;;10.20;4.07;;;13.00;99.90;;;;;;5062256;28;20072;-76
2023/08/08 04:24:35;;;;;;;8.52;4.00;;;13.00;99.90;;;;;;5116845;27;20082;-76
2023/08/08 04:27:01;;;;;;;10.23;5.10;;;13.00;99.90;;;;;;5079562;28;20063;-75
2023/08/08 04:29:27;;;;;;;10.02;3.47;;;13.00;99.90;;;;;;5067787;28;20039;-75
2023/08/08 04:31:53;;;;;;;8.32;3.30;;;13.00;99.90;;;;;;5082827;28;20109;-75
2023/08/08 04:34:18;;;;;;;6.70;3.28;;;13.00;99.90;;;;;;5069061;28;20143;-75
2023/08/08 04:36:44;;;;;;;7.43;3.28;;;13.00;99.90;;;;;;5065145;28;20071;-75
2023/08/08 04:39:10;;;;;;;7.22;3.15;;;13.00;99.90;;;;;;5117042;28;20058;-75
2023/08/08 04:41:36;;;;;;;8.52;3.00;;;13.00;99.90;;;;;;5063622;28;20035;-75
2023/08/08 04:44:02;;;;;;;8.27;3.33;;;13.00;99.90;;;;;;5069080;28;20035;-75
2023/08/08 04:46:31;;;;;;;5.50;2.60;;;13.00;99.90;;;;;;5063468;28;20067;-75
2023/08/08 04:48:56;;;;;;;6.93;2.83;;;13.10;99.90;;;;;;5065625;28;20092;-74
2023/08/08 04:51:22;;;;;;;5.72;2.75;;;13.10;99.90;;;;;;5064135;28;20043;-75
2023/08/08 04:53:48;;;;;;;7.13;2.65;;;13.10;99.90;;;;;;5078333;28;20036;-75
2023/08/08 04:56:13;;;;;;;6.00;2.45;;;13.10;99.90;;;;;;5081952;28;20159;-74
2023/08/08 04:58:39;;;;;;;9.00;2.60;;;13.10;99.90;;;;;;5079911;28;20046;-74
2023/08/08 05:01:05;;;;;;;9.20;2.85;;;13.00;99.90;;;;;;5064841;28;20048;-75
2023/08/08 05:03:31;;;;;;;5.80;2.28;;;13.10;99.90;;;;;;5084340;28;20054;-74
2023/08/08 05:05:58;;;;;;;6.80;2.53;;;13.10;99.90;;;;;;5106524;28;20069;-74
2023/08/08 05:08:24;;;;;;;6.82;1.98;;;13.10;99.90;;;;;;5066884;28;20658;-75
2023/08/08 05:10:50;;;;;;;8.50;2.70;;;13.20;99.90;;;;;;5087218;28;20409;-75
2023/08/08 05:13:16;;;;;;;8.48;2.65;;;13.30;99.90;;;;;;5066783;28;20135;-76
2023/08/08 05:15:41;;;;;;;9.23;2.60;;;13.30;99.90;;;;;;5070600;28;20139;-76
2023/08/08 05:18:10;;;;;;;7.03;2.85;;;13.40;99.90;;;;;;5084689;28;20109;-76
2023/08/08 05:20:35;;;;;;;5.93;2.35;;;13.50;99.90;;;;;;5086074;28;20050;-76
2023/08/08 05:23:01;;;;;;;7.47;2.20;;;13.60;99.90;;;;;;5083120;28;20048;-76
2023/08/08 05:25:27;;;;;;;6.60;2.20;;;13.70;99.90;;;;;;5068986;28;20062;-76
2023/08/08 05:27:53;;;;;;;4.18;1.75;;;13.70;99.90;;;;;;5069076;28;20036;-76
2023/08/08 05:30:19;;;;;;;7.00;1.80;;;13.80;99.90;;;;;;5088223;28;20047;-76
2023/08/08 05:32:44;;;;;;;9.95;2.53;;;13.90;99.90;;;;;;5082524;28;20051;-76
2023/08/08 05:35:10;;;;;;;4.55;1.80;;;14.00;99.90;;;;;;5083748;28;20070;-76
2023/08/08 05:37:36;;;;;;;6.57;1.73;;;14.00;99.90;;;;;;5121226;27;20089;-77
2023/08/08 05:40:03;;;;;;;6.03;2.17;;;14.00;99.90;;;;;;5086675;28;20040;-76
2023/08/08 05:42:32;;;;;;;5.65;1.80;;;14.10;99.90;;;;;;5083141;28;20048;-77
2023/08/08 05:44:58;;;;;;;5.45;1.77;;;14.10;99.90;;;;;;5088214;28;20055;-76
2023/08/08 05:47:24;;;;;;;4.15;1.85;;;14.10;99.90;;;;;;5070270;28;20515;-76
2023/08/08 05:49:49;;;;;;;4.47;1.60;;;14.10;99.90;;;;;;5113557;27;20135;-76
2023/08/08 05:52:15;;;;;;;4.70;1.88;;;14.10;99.90;;;;;;5086514;28;20130;-76
2023/08/08 05:54:41;;;;;;;4.40;1.70;;;14.00;99.90;;;;;;5086592;27;20482;-76
2023/08/08 05:57:07;;;;;;;5.68;1.80;;;13.90;99.90;;;;;;5086556;28;20039;-76
2023/08/08 05:59:33;;;;;;;3.47;1.70;;;13.90;99.90;;;;;;5085125;28;20043;-76
2023/08/08 06:01:59;;;;;;;5.18;1.48;;;14.00;99.90;;;;;;5066434;28;20096;-75
2023/08/08 06:04:25;;;;;;;4.22;1.48;;;13.90;99.90;;;;;;5100525;28;20039;-75
2023/08/08 06:06:54;;;;;;;5.07;1.73;;;13.90;99.90;;;;;;5065306;28;20048;-74
2023/08/08 06:09:20;;;;;;;4.93;1.70;;;14.00;99.90;;;;;;5083280;28;20107;-75
2023/08/08 06:11:46;;;;;;;4.80;1.40;;;14.00;99.90;;;;;;5083335;28;20952;-75
2023/08/08 06:14:11;;;;;;;4.82;1.60;;;14.00;99.90;;;;;;5084637;28;20062;-75
2023/08/08 06:16:41;;;;;;;7.45;1.95;;;14.10;99.90;;;;;;5084026;28;20521;-76
2023/08/08 06:19:07;;;;;;;6.13;1.40;;;14.10;99.90;;;;;;5071734;28;20046;-75
2023/08/08 06:21:36;;;;;;;6.43;1.70;;;14.20;99.90;;;;;;5064948;28;20067;-76
2023/08/08 06:24:01;;;;;;;5.78;2.03;;;14.30;99.90;;;;;;5120765;27;20132;-75
2023/08/08 06:26:28;;;;;;;5.90;2.30;;;14.40;99.90;;;;;;5082525;28;20031;-76
2023/08/08 06:28:54;;;;;;;5.03;1.90;;;14.40;99.90;;;;;;5083245;28;20063;-75
2023/08/08 06:31:20;;;;;;;7.85;1.85;;;14.50;99.90;;;;;;5084228;28;20782;-75
2023/08/08 06:33:46;;;;;;;7.47;2.03;;;14.60;99.90;;;;;;5084413;28;20100;-75
2023/08/08 06:36:12;;;;;;;6.25;2.03;;;14.60;99.90;;;;;;5081047;28;20043;-76
2023/08/08 06:38:40;;;;;;;6.63;1.90;;;14.60;99.90;;;;;;5085890;28;20061;-76
2023/08/08 06:41:09;;;;;;;6.90;2.15;;;14.70;99.90;;;;;;5085397;28;20050;-75
2023/08/08 06:43:38;;;;;;;8.05;1.90;;;14.80;99.90;;;;;;5084232;28;20406;-75
2023/08/08 06:46:04;;;;;;;7.22;2.10;;;14.90;99.90;;;;;;5068313;28;20035;-76
2023/08/08 06:48:30;;;;;;;7.13;1.85;;;15.00;99.90;;;;;;5114648;27;20032;-76
2023/08/08 06:50:56;;;;;;;6.05;1.80;;;15.00;99.90;;;;;;5068052;28;20054;-76
2023/08/08 06:53:26;;;;;;;8.77;2.50;;;15.10;99.90;;;;;;5069375;28;20131;-76
2023/08/08 06:55:54;;;;;;;10.18;1.70;;;15.20;99.90;;;;;;5069324;28;20043;-75
2023/08/08 06:58:20;;;;;;;7.05;1.92;;;15.30;99.90;;;;;;5086186;28;20048;-75
2023/08/08 07:00:46;;;;;;;7.63;1.90;;;15.50;99.90;;;;;;5082621;28;20047;-76
2023/08/08 07:03:11;;;;;;;7.75;2.55;;;15.60;99.90;;;;;;5085881;28;20048;-75
2023/08/08 07:05:40;;;;;;;5.07;1.70;;;15.60;99.90;;;;;;5078988;28;20118;-76
2023/08/08 07:08:06;;;;;;;9.20;1.75;;;15.70;99.90;;;;;;5081617;28;20032;-75
2023/08/08 07:10:31;;;;;;;7.30;1.85;;;15.80;99.90;;;;;;5080780;28;20086;-76
2023/08/08 07:12:57;;;;;;;8.07;1.95;;;15.90;99.90;;;;;;5068491;28;20050;-76
2023/08/08 07:15:23;;;;;;;5.43;1.60;;;16.00;99.90;;;;;;5086869;28;20543;-76
2023/08/08 07:17:49;;;;;;;4.65;1.50;;;16.10;99.90;;;;;;5083425;28;20043;-75
2023/08/08 07:20:15;;;;;;;5.88;1.60;;;16.20;99.90;;;;;;5109365;27;20805;-75
2023/08/08 07:22:41;;;;;;;6.28;1.33;;;16.30;99.90;;;;;;5064142;28;20043;-76
2023/08/08 07:25:11;;;;;;;7.57;1.77;;;16.40;99.90;;;;;;5082651;28;20055;-75
2023/08/08 07:27:40;;;;;;;6.95;1.70;;;16.60;99.90;;;;;;5077139;28;20044;-75
2023/08/08 07:30:06;;;;;;;5.35;1.40;;;16.60;99.90;;;;;;5101883;28;20060;-76
2023/08/08 07:32:33;;;;;;;4.93;1.38;;;16.70;99.90;;;;;;5083447;28;20405;-76
2023/08/08 07:35:01;;;;;;;8.57;1.65;;;16.90;99.90;;;;;;5080579;28;20036;-76
2023/08/08 07:37:27;;;;;;;7.55;1.75;;;16.90;99.90;;;;;;5082794;28;20043;-76
2023/08/08 07:39:52;;;;;;;6.85;1.45;;;17.00;99.90;;;;;;5081422;28;20065;-76
2023/08/08 07:42:18;;;;;;;5.63;1.52;;;16.90;99.90;;;;;;5082824;28;20152;-76
2023/08/08 07:44:44;;;;;;;5.65;1.10;;;16.90;99.90;;;;;;5080631;28;20039;-76
2023/08/08 07:47:09;;;;;;;7.32;1.30;;;16.90;99.90;;;;;;5065531;28;20592;-76
2023/08/08 07:49:35;;;;;;;6.93;1.52;;;16.90;99.90;;;;;;5081632;28;20236;-76
2023/08/08 07:52:01;;;;;;;6.85;1.27;;;16.90;99.90;;;;;;5082927;28;20051;-76
2023/08/08 07:54:27;;;;;;;8.80;1.48;;;16.90;99.90;;;;;;5096665;28;20035;-76
2023/08/08 07:56:52;;;;;;;7.13;1.15;;;16.90;99.90;;;;;;5097856;28;20112;-76
2023/08/08 07:59:18;;;;;;;4.00;1.25;;;16.90;99.90;;;;;;5114496;27;20039;-76
2023/08/08 08:01:44;;;;;;;4.72;1.20;;;16.90;99.90;;;;;;5084581;28;20058;-76
2023/08/08 08:04:10;;;;;;;4.38;1.35;;;16.90;99.90;;;;;;5080490;28;20042;-77
2023/08/08 08:06:35;;;;;;;4.68;1.23;;;16.80;99.90;;;;;;5083722;28;20044;-76
2023/08/08 08:09:01;;;;;;;6.18;1.30;;;16.90;99.90;;;;;;5082421;28;20036;-76
2023/08/08 08:11:27;;;;;;;4.55;1.30;;;16.80;99.90;;;;;;5082427;28;20124;-76
2023/08/08 08:13:52;;;;;;;5.45;1.10;;;16.80;99.90;;;;;;5083595;28;20044;-76
2023/08/08 08:16:18;;;;;;;4.88;1.40;;;16.80;99.90;;;;;;5082112;28;20070;-75
2023/08/08 08:18:44;;;;;;;5.43;1.20;;;16.80;99.90;;;;;;5114349;27;20039;-76
2023/08/08 08:21:10;;;;;;;3.25;1.10;;;16.90;99.90;;;;;;5083452;28;20040;-76
2023/08/08 08:23:35;;;;;;;6.65;1.20;;;17.00;99.90;;;;;;5101383;28;20023;-75
2023/08/08 08:26:01;;;;;;;5.22;1.30;;;17.10;99.90;;;;;;5064130;28;20043;-76
2023/08/08 08:28:27;;;;;;;4.60;1.17;;;17.10;99.90;;;;;;5082981;28;20623;-75
2023/08/08 08:30:53;;;;;;;6.40;1.20;;;17.10;99.90;;;;;;5083969;28;20043;-75
2023/08/08 08:33:19;;;;;;;4.90;1.40;;;17.20;99.90;;;;;;5066138;28;20177;-75
2023/08/08 08:35:45;;;;;;;6.53;1.48;;;17.30;99.90;;;;;;5065587;28;20047;-76
2023/08/08 08:38:11;;;;;;;6.90;1.35;;;17.30;99.90;;;;;;5084831;28;20051;-76
2023/08/08 08:40:40;;;;;;;6.03;1.55;;;17.30;99.90;;;;;;5086597;28;20040;-75
2023/08/08 08:43:08;;;;;;;5.65;1.20;;;17.40;99.90;;;;;;5088476;28;20047;-76
2023/08/08 08:45:38;;;;;;;7.22;1.50;;;17.50;99.90;;;;;;5070964;28;20084;-76
2023/08/08 08:48:13;;;;;;;3.90;1.10;;;17.60;99.90;;;;;;5071058;28;20032;-76
2023/08/08 08:50:39;;;;;;;6.03;1.23;;;17.60;99.90;;;;;;5083808;28;20060;-76
2023/08/08 08:53:06;;;;;;;6.53;1.50;;;17.50;99.90;;;;;;5085692;28;20039;-75
2023/08/08 08:55:35;;;;;;;4.88;1.55;;;17.40;99.90;;;;;;5088343;28;20043;-75
2023/08/08 08:58:01;;;;;;;5.43;1.40;;;17.30;99.90;;;;;;5068357;28;20772;-75
2023/08/08 09:00:28;;;;;;;5.00;1.17;;;17.20;99.90;;;;;;5099417;27;20067;-76
2023/08/08 09:02:55;;;;;;;4.28;1.50;;;17.10;99.90;;;;;;5083299;28;20493;-75
2023/08/08 09:05:24;;;;;;;5.25;1.15;;;17.10;99.90;;;;;;5086122;28;20075;-75
2023/08/08 09:07:51;;;;;;;6.05;1.52;;;17.20;99.90;;;;;;5083758;28;20070;-76
2023/08/08 09:10:18;;;;;;;4.65;1.30;;;17.20;99.90;;;;;;5068651;28;20043;-76
2023/08/08 09:12:44;;;;;;;5.03;1.10;;;17.30;99.90;;;;;;5086176;28;20067;-75
2023/08/08 09:15:11;;;;;;;6.32;1.67;;;17.30;99.90;;;;;;5069972;28;20048;-76
2023/08/08 09:17:46;;;;;;;4.70;1.55;;;17.30;99.90;;;;;;5118898;27;20051;-75
2023/08/08 09:20:17;;;;;;;6.03;1.48;;;17.20;99.90;;;;;;5116985;27;20482;-75
2023/08/08 09:22:43;;;;;;;5.07;1.33;;;17.10;99.90;;;;;;5068197;28;20043;-77
2023/08/08 09:25:08;;;;;;;5.18;1.35;;;17.10;99.90;;;;;;5084917;28;20040;-77
2023/08/08 09:27:35;;;;;;;6.32;1.77;;;17.00;99.90;;;;;;5088328;28;20043;-78
2023/08/08 09:30:02;;;;;;;5.05;1.35;;;16.90;99.90;;;;;;5068350;28;20048;-77
2023/08/08 09:32:32;;;;;;;5.28;1.50;;;16.90;99.90;;;;;;5086822;28;20191;-77
2023/08/08 09:34:58;;;;;;;5.82;1.60;;;16.80;99.90;;;;;;5087479;28;20040;-76
2023/08/08 09:37:25;;;;;;;4.72;1.52;;;16.80;99.90;;;;;;5085653;28;20051;-76
2023/08/08 09:40:05;;;;;;;6.50;1.48;;;16.80;99.90;;;;;;5083429;28;20430;-77
2023/08/08 09:42:31;;;;;;;4.65;1.30;;;16.80;99.90;;;;;;5072131;28;20123;-77
2023/08/08 09:44:58;;;;;;;4.90;1.38;;;16.70;99.90;;;;;;5082363;28;20047;-77
2023/08/08 09:47:24;;;;;;;6.63;1.48;;;16.70;99.90;;;;;;5069004;28;20400;-76
2023/08/08 09:49:50;;;;;;;5.68;1.50;;;16.80;99.90;;;;;;5068975;27;20533;-76
2023/08/08 09:52:17;;;;;;;6.20;1.55;;;17.00;99.90;;;;;;5085957;28;20549;-75
2023/08/08 09:54:43;;;;;;;7.20;1.58;;;17.10;99.90;;;;;;5080029;28;20058;-77
2023/08/08 09:57:09;;;;;;;4.70;1.10;;;17.30;99.90;;;;;;5084931;27;20044;-76
2023/08/08 09:59:39;;;;;;;3.63;1.25;;;17.30;99.90;;;;;;5083620;28;20682;-75
2023/08/08 10:02:06;;;;;;;4.60;1.50;;;17.30;99.90;;;;;;5083990;28;20044;-76
2023/08/08 10:04:33;;;;;;;4.07;1.30;;;17.40;99.90;;;;;;5082328;28;20036;-76
2023/08/08 10:06:59;;;;;;;5.70;1.75;;;17.60;99.90;;;;;;5082835;28;20374;-75
2023/08/08 10:09:25;;;;;;;7.40;1.52;;;17.80;99.90;;;;;;5068745;28;20620;-75
2023/08/08 10:11:54;;;;;;;4.65;1.30;;;18.00;99.90;;;;;;5065678;28;20188;-76
2023/08/08 10:14:20;;;;;;;4.88;1.23;;;18.30;99.90;;;;;;5087855;28;20054;-75
2023/08/08 10:16:48;;;;;;;7.75;1.35;;;18.60;99.90;;;;;;5084010;28;20044;-75
2023/08/08 10:19:21;;;;;;;5.50;1.42;;;18.90;99.90;;;;;;5087147;28;20081;-75
2023/08/08 10:21:47;;;;;;;7.10;1.80;;;19.10;99.90;;;;;;5083403;27;20080;-76
2023/08/08 10:24:13;;;;;;;5.50;1.45;;;19.20;99.90;;;;;;5120603;27;20051;-75
2023/08/08 10:26:53;;;;;;;2.55;0.98;;;19.30;99.90;;;;;;5083135;28;20412;-76
2023/08/08 10:29:20;;;;;;;6.00;1.20;;;19.30;99.90;;;;;;5084977;28;20478;-76
2023/08/08 10:32:04;;;;;;;4.20;1.13;;;19.40;99.90;;;;;;5084883;28;20095;-76
2023/08/08 10:34:43;;;;;;;5.05;1.40;;;19.50;99.90;;;;;;5084302;28;20047;-76
2023/08/08 10:37:17;;;;;;;4.75;1.05;;;19.70;99.90;;;;;;5119943;27;20047;-76
2023/08/08 10:39:58;;;;;;;4.63;1.15;;;19.80;99.90;;;;;;5086685;28;20051;-76
2023/08/08 10:42:26;;;;;;;4.05;1.00;;;19.90;99.90;;;;;;5083008;28;20039;-76
2023/08/08 10:44:57;;;;;;;3.80;1.20;;;19.90;99.90;;;;;;5066091;28;20039;-76
2023/08/08 10:47:41;;;;;;;4.03;1.30;;;20.00;99.90;;;;;;5085471;28;20163;-75
2023/08/08 10:50:13;;;;;;;5.43;1.30;;;20.00;99.90;;;;;;5118147;27;20077;-75
2023/08/08 10:52:54;;;;;;;5.03;1.40;;;20.00;99.90;;;;;;5068348;28;20575;-76
2023/08/08 10:55:34;;;;;;;6.03;1.88;;;20.00;99.90;;;;;;5085387;28;20042;-75
2023/08/08 10:58:10;;;;;;;5.72;1.42;;;20.10;99.90;;;;;;5058123;28;20055;-75
2023/08/08 11:00:40;;;;;;;4.97;0.95;;;20.20;99.90;;;;;;5068032;28;20469;-76
2023/08/08 11:03:09;;;;;;;3.85;1.00;;;20.20;99.90;;;;;;5082142;28;20047;-75
2023/08/08 11:05:44;;;;;;;4.35;1.05;;;19.90;99.90;;;;;;5067436;28;20035;-75
2023/08/08 11:08:10;;;;;;;4.35;1.08;;;19.60;99.90;;;;;;5066964;28;20139;-76
2023/08/08 11:10:40;;;;;;;5.47;1.10;;;19.40;99.90;;;;;;5084588;28;20232;-75
2023/08/08 11:13:07;;;;;;;4.75;1.27;;;19.40;99.90;;;;;;5081703;28;20533;-75
2023/08/08 11:15:36;;;;;;;3.55;0.90;;;19.40;99.90;;;;;;5117231;27;20100;-76
2023/08/08 11:18:05;;;;;;;4.63;1.10;;;19.50;99.90;;;;;;5082736;28;20039;-75
2023/08/08 11:20:33;;;;;;;6.75;1.30;;;19.70;99.90;;;;;;5117878;27;20137;-75
2023/08/08 11:23:00;;;;;;;6.45;1.65;;;19.90;99.90;;;;;;5064702;28;20065;-75
2023/08/08 11:25:28;;;;;;;4.30;1.25;;;20.10;99.90;;;;;;5067109;28;20648;-76
2023/08/08 11:27:55;;;;;;;4.88;0.98;;;20.20;99.90;;;;;;5063024;28;20131;-75
2023/08/08 11:30:22;;;;;;;3.42;1.00;;;20.10;99.90;;;;;;5083951;28;20513;-75
2023/08/08 11:32:49;;;;;;;5.57;1.40;;;19.90;99.90;;;;;;5063830;28;20188;-76
2023/08/08 11:35:21;;;;;;;5.82;1.20;;;19.60;99.90;;;;;;5080988;28;20043;-76
2023/08/08 11:37:48;;;;;;;6.65;1.30;;;19.50;99.90;;;;;;5081022;28;20410;-76
2023/08/08 11:40:16;;;;;;;4.57;1.35;;;19.50;99.90;;;;;;5081165;28;20040;-76
2023/08/08 11:42:42;;;;;;;4.30;1.30;;;19.60;99.90;;;;;;5116343;27;20097;-76
2023/08/08 11:45:09;;;;;;;4.82;1.10;;;19.70;99.90;;;;;;5066603;28;20086;-75
2023/08/08 11:47:36;;;;;;;4.38;1.27;;;19.80;99.90;;;;;;5085531;28;20115;-76
2023/08/08 11:50:06;;;;;;;;;;;19.80;99.90;;;;;;5084274;28;20410;-75
2023/08/08 11:52:33;;;;;;;3.40;1.05;;;19.90;99.90;;;;;;5068466;28;19920;-75
2023/08/08 11:55:02;;;;;;;3.47;1.13;;;19.90;99.90;;;;;;5065075;28;20494;-76
2023/08/08 11:57:28;;;;;;;4.45;1.40;;;20.00;99.90;;;;;;5083542;28;20059;-76
2023/08/08 11:59:57;;;;;;;4.68;1.20;;;20.20;99.90;;;;;;5062714;28;20036;-76
2023/08/08 12:02:27;;;;;;;5.30;1.50;;;20.30;99.90;;;;;;5066349;28;20145;-76
2023/08/08 12:04:53;;;;;;;4.15;1.20;;;20.20;99.90;;;;;;5081850;28;20599;-76
2023/08/08 12:07:19;;;;;;;6.30;1.52;;;20.20;99.90;;;;;;5066218;28;20035;-75
2023/08/08 12:09:47;;;;;;;6.18;1.27;;;20.20;99.90;;;;;;5064599;28;20048;-76
2023/08/08 12:12:14;;;;;;;7.38;1.40;;;20.20;99.90;;;;;;5068354;28;20048;-76
2023/08/08 12:14:41;;;;;;;5.38;1.48;;;20.10;99.90;;;;;;5078936;28;20049;-76
2023/08/08 12:17:10;;;;;;;6.03;1.50;;;20.00;99.90;;;;;;5083058;28;20048;-75
2023/08/08 12:19:36;;;;;;;4.70;1.20;;;20.10;99.90;;;;;;5084256;28;20032;-76
2023/08/08 12:22:02;;;;;;;9.63;1.30;;;20.20;99.90;;;;;;5065537;28;20039;-76
2023/08/08 12:24:28;;;;;;;5.90;1.38;;;20.30;99.90;;;;;;5084301;28;20561;-76
2023/08/08 12:26:53;;;;;;;6.00;1.30;;;20.20;99.90;;;;;;5079811;28;20043;-75
2023/08/08 12:29:19;;;;;;;4.78;1.15;;;20.00;99.90;;;;;;5065074;28;20497;-76
2023/08/08 12:31:45;;;;;;;5.15;1.00;;;19.90;99.90;;;;;;5082554;28;20047;-76
2023/08/08 12:34:11;;;;;;;4.15;1.00;;;19.90;99.90;;;;;;5065736;28;20051;-75
2023/08/08 12:36:40;;;;;;;5.30;0.90;;;20.00;99.90;;;;;;5072267;28;20474;-76
2023/08/08 12:39:06;;;;;;;3.38;1.02;;;20.10;99.90;;;;;;5078738;28;20051;-75
2023/08/08 12:41:31;;;;;;;5.63;1.23;;;20.30;99.90;;;;;;5083771;28;20047;-75
2023/08/08 12:43:57;;;;;;;5.05;1.00;;;20.40;99.90;;;;;;5081843;28;20624;-75
2023/08/08 12:46:24;;;;;;;4.97;1.33;;;20.50;99.90;;;;;;5062873;28;20059;-75